Castaic, CA (91310)

7:44 AM PST on February 11, 2016 (GMT -0800)
Castaic Weather | | Change Station
CLOSE
Current Station
Personal Weather Station
Location: Castaic, CA
Elevation: 1670 ft
Nearby Weather Stations

Elev 1670 ft 34.48 °N, 118.64 °W | Updated 5 minutes ago

Clear
Clear
62.2 °F
Feels Like 62.2 °F
N
1.0
Wind Variable Wind from ESE
Gusts 1.0 mph

Today
High -- | Low -- °F
--% Chance of Precip.
Yesterday
High -- | Low -- °F
Precip. -- in
Pressure 30.09 in
Visibility 10.0 miles
Clouds Clear
Dew Point 29 °F
Humidity 29%
Rainfall 0.00 in
Snow Depth Not available.
6:44 AM 5:33 PM
Waxing Crescent, 12% visible
METAR KVNY 111451Z 00000KT 10SM CLR 10/02 A3011 RMK AO2 SLP189 T01000017 53001
Pressure 30.09 in
Visibility 10.0 miles
Clouds Clear
Dew Point 29 °F
Humidity 29%
Rainfall 0.00 in
Snow Depth Not available.
6:44 AM 5:33 PM
Waxing Crescent, 12% visible
METAR KVNY 111451Z 00000KT 10SM CLR 10/02 A3011 RMK AO2 SLP189 T01000017 53001

10-Day Weather Forecast

Almanac

Astronomy

Feb. 11, 2016 Rise Set
Actual Time
Civil Twilight
Nautical Twilight
Astronomical Twilight
Moon
Length of Visible Light
Length of Day
Tomorrow will be .
, % of the Moon is Illuminated

Today's Extremes

State Highs State Lows

Community

WunderPhotos

Upload Photos

1,892,081 photos uploaded!

WunderBlog® & News

Nearby

Air Quality

  Air Quality AQ Index Pollutant
Not available.

Snow Depth

Station Depth Elevation

Earthquake Activity

City Distance Mag. Time & Date
Minimum magnitude displayed is 2.5.

Coastal Water Temperatures

Place Temperature

Stations

Nearby Weather Stations

Station Location Temp. Windchill Dew Point Humidity Wind Precip. Elev Updated Type
                   

Watches & Warnings

There are currently no watches in effect.